Time;durP1;ratioP1;P1;durP2;ratioP2;P2;SDS_P1;SDS_P2;PMS_P1;PMS_P2;Temp;Humidity;BMP_temperature;BMP_pressure;BME280_temperature;BME280_humidity;BME280_pressure;Samples;Min_cycle;Max_cycle;Signal;HPM_P1;HPM_P2
2024/04/04 00:02:19;;;;;;;2.43;1.43;;;10.60;89.20;;;;;;6310436;28;20202;-61
2024/04/04 00:05:20;;;;;;;5.07;1.67;;;10.50;89.40;;;;;;6316446;28;20606;-61
2024/04/04 00:08:21;;;;;;;2.97;1.90;;;10.40;89.60;;;;;;6304497;28;20232;-62
2024/04/04 00:11:21;;;;;;;5.90;2.10;;;10.40;89.90;;;;;;6321090;28;20213;-61
2024/04/04 00:14:22;;;;;;;2.17;1.63;;;10.20;90.00;;;;;;6304405;28;20248;-61
2024/04/04 00:17:23;;;;;;;2.73;1.60;;;10.20;90.20;;;;;;6305440;28;20284;-61
2024/04/04 00:20:24;;;;;;;1.83;1.70;;;10.10;90.60;;;;;;6304942;28;20282;-61
2024/04/04 00:23:25;;;;;;;1.90;1.77;;;10.00;91.10;;;;;;6303803;28;20518;-61
2024/04/04 00:26:27;;;;;;;4.47;2.30;;;9.90;91.10;;;;;;6304400;28;20618;-61
2024/04/04 00:29:28;;;;;;;2.03;1.83;;;9.80;91.70;;;;;;6301949;28;20518;-62
2024/04/04 00:32:29;;;;;;;7.50;2.33;;;9.70;92.20;;;;;;6301248;28;20473;-61
2024/04/04 00:35:30;;;;;;;4.60;2.23;;;9.60;92.90;;;;;;6301036;28;20279;-61
2024/04/04 00:38:30;;;;;;;1.73;1.33;;;9.60;93.80;;;;;;6301267;28;20432;-61
2024/04/04 00:41:31;;;;;;;3.93;1.80;;;9.50;94.00;;;;;;6301049;28;20641;-61
2024/04/04 00:44:32;;;;;;;2.80;1.70;;;9.50;94.10;;;;;;6300522;28;20182;-61
2024/04/04 00:47:33;;;;;;;4.00;1.70;;;9.50;94.00;;;;;;6300673;28;20287;-62
2024/04/04 00:50:34;;;;;;;3.23;1.90;;;9.50;94.00;;;;;;6284526;28;20208;-61
2024/04/04 00:53:36;;;;;;;2.00;1.70;;;9.40;94.20;;;;;;6300751;28;20508;-61
2024/04/04 00:56:37;;;;;;;6.80;1.90;;;9.40;94.20;;;;;;6300737;28;20272;-61
2024/04/04 00:59:38;;;;;;;3.10;2.57;;;9.40;94.30;;;;;;6304230;28;20519;-62
2024/04/04 01:02:39;;;;;;;5.70;2.07;;;9.40;94.70;;;;;;6308787;28;20467;-62
2024/04/04 01:05:40;;;;;;;6.33;2.30;;;9.40;95.50;;;;;;6300661;28;20443;-62
2024/04/04 01:08:41;;;;;;;6.17;2.43;;;9.50;96.10;;;;;;6299976;28;20234;-61
2024/04/04 01:11:41;;;;;;;6.17;2.30;;;9.60;96.60;;;;;;6299963;28;20274;-63
2024/04/04 01:14:42;;;;;;;2.80;2.20;;;9.60;96.80;;;;;;6300261;28;20277;-62
2024/04/04 01:17:43;;;;;;;4.17;2.57;;;9.70;96.70;;;;;;6300308;28;20185;-61
2024/04/04 01:20:44;;;;;;;5.53;2.80;;;9.70;96.80;;;;;;6299978;28;20181;-61
2024/04/04 01:23:44;;;;;;;4.73;2.53;;;9.70;96.80;;;;;;6300358;28;20185;-62
2024/04/04 01:26:45;;;;;;;2.63;2.20;;;9.70;96.80;;;;;;6300404;28;20185;-62
2024/04/04 01:29:46;;;;;;;7.30;2.60;;;9.80;96.80;;;;;;6299964;28;20189;-62
2024/04/04 01:32:46;;;;;;;5.17;2.90;;;9.80;97.00;;;;;;6300115;28;20205;-61
2024/04/04 01:35:47;;;;;;;3.70;2.60;;;9.80;97.00;;;;;;6300323;28;20188;-61
2024/04/04 01:38:48;;;;;;;4.03;2.53;;;9.80;96.90;;;;;;6283032;28;20610;-62
2024/04/04 01:41:49;;;;;;;3.47;2.30;;;9.90;96.90;;;;;;6300297;28;20736;-61
2024/04/04 01:44:50;;;;;;;3.77;2.30;;;9.80;96.90;;;;;;6300279;28;20428;-62
2024/04/04 01:47:51;;;;;;;4.20;2.70;;;9.90;96.90;;;;;;6299562;28;20194;-62
2024/04/04 01:50:51;;;;;;;6.50;3.03;;;9.90;96.70;;;;;;6299671;28;20189;-61
2024/04/04 01:53:52;;;;;;;4.50;2.87;;;10.00;96.70;;;;;;6283601;28;20200;-62
2024/04/04 01:56:53;;;;;;;4.50;4.03;;;9.90;97.10;;;;;;6304800;28;20216;-61
2024/04/04 01:59:53;;;;;;;7.83;3.30;;;10.00;97.40;;;;;;6288151;28;20218;-62
2024/04/04 02:02:54;;;;;;;4.63;3.70;;;10.00;97.80;;;;;;6287866;28;20197;-61
2024/04/04 02:05:55;;;;;;;3.53;3.20;;;10.10;98.30;;;;;;6304586;28;20192;-62
2024/04/04 02:08:56;;;;;;;7.10;3.97;;;10.20;98.60;;;;;;6304591;28;20323;-61
2024/04/04 02:11:56;;;;;;;4.00;3.30;;;10.20;98.70;;;;;;6304059;28;20679;-61
2024/04/04 02:14:57;;;;;;;5.00;3.53;;;10.20;98.80;;;;;;6304062;28;20288;-62
2024/04/04 02:17:58;;;;;;;4.67;4.13;;;10.30;99.10;;;;;;6303993;28;20275;-61
2024/04/04 02:20:59;;;;;;;4.30;3.30;;;10.30;99.30;;;;;;6304000;28;20516;-62
2024/04/04 02:24:00;;;;;;;7.13;3.40;;;10.40;99.40;;;;;;6304179;28;20526;-61
2024/04/04 02:27:01;;;;;;;6.13;3.50;;;10.40;99.30;;;;;;6304658;28;20283;-61
2024/04/04 02:30:02;;;;;;;4.20;3.80;;;10.50;99.40;;;;;;6303918;28;20985;-62
2024/04/04 02:33:04;;;;;;;6.23;3.80;;;10.50;99.30;;;;;;6287218;28;20245;-62
2024/04/04 02:36:05;;;;;;;4.87;3.50;;;10.50;99.40;;;;;;6304458;28;20569;-62
2024/04/04 02:39:06;;;;;;;4.07;3.57;;;10.60;99.30;;;;;;6303361;28;20420;-61
2024/04/04 02:42:06;;;;;;;5.87;3.40;;;10.60;99.10;;;;;;6304331;28;20227;-60
2024/04/04 02:45:08;;;;;;;3.93;3.10;;;10.70;99.00;;;;;;6287722;28;20201;-61
2024/04/04 02:48:09;;;;;;;5.60;3.10;;;10.70;98.80;;;;;;6303775;28;20266;-60
2024/04/04 02:51:10;;;;;;;2.70;2.50;;;10.70;98.80;;;;;;6286684;28;20558;-60
2024/04/04 02:54:11;;;;;;;3.13;2.20;;;10.80;98.60;;;;;;6303411;28;20545;-62
2024/04/04 02:57:11;;;;;;;3.13;2.20;;;10.90;98.30;;;;;;6303656;28;20521;-60
2024/04/04 03:00:13;;;;;;;2.63;2.20;;;11.00;98.10;;;;;;6303356;28;20188;-60
2024/04/04 03:03:14;;;;;;;3.47;2.60;;;11.00;97.80;;;;;;6304005;28;20307;-61
2024/04/04 03:06:18;;;;;;;2.63;1.90;;;11.10;97.60;;;;;;6303041;28;20518;-61
2024/04/04 03:09:20;;;;;;;2.53;2.07;;;11.10;97.30;;;;;;6303138;28;20571;-62
2024/04/04 03:12:21;;;;;;;2.70;2.20;;;11.20;97.10;;;;;;6302912;28;20558;-63
2024/04/04 03:15:21;;;;;;;4.43;2.10;;;11.20;96.90;;;;;;6302812;28;20459;-61
2024/04/04 03:18:23;;;;;;;2.57;1.97;;;11.20;96.80;;;;;;6302696;28;20196;-62
2024/04/04 03:21:23;;;;;;;1.80;1.70;;;11.20;96.60;;;;;;6303293;28;20253;-62
2024/04/04 03:24:24;;;;;;;2.73;2.00;;;11.30;96.50;;;;;;6314405;28;20429;-61
2024/04/04 03:27:25;;;;;;;7.67;2.80;;;11.30;96.50;;;;;;6317199;28;20229;-61
2024/04/04 03:30:26;;;;;;;3.40;2.37;;;11.30;96.40;;;;;;6302286;28;20514;-61
2024/04/04 03:33:27;;;;;;;2.70;2.30;;;11.40;96.40;;;;;;6302303;28;20215;-62
2024/04/04 03:36:28;;;;;;;3.00;2.40;;;11.40;96.40;;;;;;6301724;28;20571;-62
2024/04/04 03:39:29;;;;;;;4.67;2.43;;;11.30;96.50;;;;;;6301693;28;20280;-61
2024/04/04 03:42:30;;;;;;;9.97;3.60;;;11.40;96.60;;;;;;6302784;28;20899;-61
2024/04/04 03:45:31;;;;;;;8.23;2.40;;;11.40;96.60;;;;;;6302070;28;20589;-61
2024/04/04 03:48:33;;;;;;;2.60;2.20;;;11.30;96.70;;;;;;6302330;28;20194;-62
2024/04/04 03:51:34;;;;;;;5.10;2.40;;;11.40;96.70;;;;;;6302473;28;20209;-62
2024/04/04 03:54:35;;;;;;;4.90;2.17;;;11.40;96.70;;;;;;6301805;28;20845;-61
2024/04/04 03:57:37;;;;;;;2.30;1.93;;;11.50;96.70;;;;;;6285675;28;20201;-61
2024/04/04 04:00:38;;;;;;;3.13;2.17;;;11.50;96.70;;;;;;6302005;28;20592;-61
2024/04/04 04:03:38;;;;;;;3.60;1.50;;;11.40;96.70;;;;;;6301846;28;20446;-62
2024/04/04 04:06:39;;;;;;;4.27;2.60;;;11.50;96.70;;;;;;6301441;28;20888;-62
2024/04/04 04:09:40;;;;;;;6.23;1.90;;;11.50;96.70;;;;;;6301979;28;20200;-61
2024/04/04 04:12:41;;;;;;;2.30;1.60;;;11.50;96.60;;;;;;6301252;28;20204;-64
2024/04/04 04:15:41;;;;;;;2.80;2.00;;;11.60;96.40;;;;;;6301151;28;20238;-61
2024/04/04 04:18:42;;;;;;;2.87;1.90;;;11.60;96.30;;;;;;6300240;28;20193;-61
2024/04/04 04:21:43;;;;;;;2.83;1.80;;;11.60;96.30;;;;;;6301071;28;20198;-61
2024/04/04 04:24:44;;;;;;;2.70;1.60;;;11.60;96.30;;;;;;6300601;28;20432;-62
2024/04/04 04:27:45;;;;;;;2.40;1.50;;;11.60;96.20;;;;;;6300616;28;20478;-62
2024/04/04 04:30:45;;;;;;;7.57;2.10;;;11.70;96.10;;;;;;6300613;28;20672;-61
2024/04/04 04:33:46;;;;;;;2.70;1.60;;;11.70;96.10;;;;;;6300412;28;20213;-62
2024/04/04 04:37:03;;;;;;;2.60;1.80;;;11.70;96.10;;;;;;6300756;28;20612;-62
2024/04/04 04:40:05;;;;;;;3.13;1.70;;;11.70;95.90;;;;;;6300954;28;20406;-63
2024/04/04 04:43:05;;;;;;;2.83;2.27;;;11.80;96.00;;;;;;6300701;28;20527;-63
2024/04/04 04:46:06;;;;;;;4.30;1.90;;;11.70;96.00;;;;;;6300531;28;20428;-61
2024/04/04 04:49:07;;;;;;;3.67;2.30;;;11.80;95.80;;;;;;6300971;28;20483;-62
2024/04/04 04:52:08;;;;;;;4.23;1.90;;;11.80;95.90;;;;;;6300277;28;20671;-62
2024/04/04 04:55:09;;;;;;;5.93;2.30;;;11.80;96.10;;;;;;6300218;28;20197;-62
2024/04/04 04:58:10;;;;;;;3.27;2.10;;;11.70;96.30;;;;;;6300529;28;20245;-62
2024/04/04 05:01:11;;;;;;;5.00;3.00;;;11.70;96.20;;;;;;6300221;28;20428;-63
2024/04/04 05:04:11;;;;;;;4.90;2.07;;;11.80;96.20;;;;;;6299827;28;20227;-62
2024/04/04 05:07:12;;;;;;;3.63;2.30;;;11.80;96.30;;;;;;6299144;28;20236;-61
2024/04/04 05:10:13;;;;;;;4.87;2.50;;;11.80;96.20;;;;;;6283313;28;20173;-62
2024/04/04 05:13:14;;;;;;;7.20;2.10;;;11.80;96.20;;;;;;6300499;28;20204;-62
2024/04/04 05:16:14;;;;;;;4.27;2.27;;;11.80;96.10;;;;;;6300120;28;20182;-61
2024/04/04 05:19:17;;;;;;;3.73;2.00;;;11.80;96.10;;;;;;6300416;28;20658;-62
2024/04/04 05:22:18;;;;;;;4.53;2.70;;;11.80;96.10;;;;;;6301467;28;20232;-62
2024/04/04 05:25:18;;;;;;;4.97;1.90;;;11.90;95.80;;;;;;6300153;28;20424;-63
2024/04/04 05:28:25;;;;;;;7.10;2.37;;;11.90;95.70;;;;;;6301323;28;20559;-62
2024/04/04 05:31:26;;;;;;;3.30;2.17;;;11.90;95.60;;;;;;6299803;28;20206;-62
2024/04/04 05:34:27;;;;;;;4.33;2.40;;;11.90;95.40;;;;;;6299018;28;20440;-64
2024/04/04 05:37:27;;;;;;;6.10;2.10;;;12.00;95.00;;;;;;6282444;28;20307;-63
2024/04/04 05:40:28;;;;;;;6.80;2.10;;;12.00;94.50;;;;;;6299326;28;20221;-62
2024/04/04 05:43:29;;;;;;;5.70;2.50;;;12.10;94.30;;;;;;6299078;28;20622;-63
2024/04/04 05:46:30;;;;;;;5.53;2.13;;;12.20;93.80;;;;;;6299014;28;20553;-63
2024/04/04 05:49:31;;;;;;;3.90;2.00;;;12.30;93.50;;;;;;6299440;28;20429;-62
2024/04/04 05:52:32;;;;;;;5.83;1.90;;;12.30;92.80;;;;;;6299258;28;20616;-62
2024/04/04 05:55:33;;;;;;;6.30;2.20;;;12.30;92.70;;;;;;6299461;28;20919;-62
2024/04/04 05:58:34;;;;;;;4.23;2.17;;;12.30;92.40;;;;;;6299621;28;20190;-62
2024/04/04 06:01:35;;;;;;;3.60;1.60;;;12.30;92.00;;;;;;6299272;28;20207;-61
2024/04/04 06:04:36;;;;;;;3.07;1.60;;;12.40;91.80;;;;;;6285017;28;20428;-64
2024/04/04 06:07:36;;;;;;;5.03;1.73;;;12.50;91.50;;;;;;6306613;28;20687;-63
2024/04/04 06:10:37;;;;;;;6.70;1.70;;;12.60;90.90;;;;;;6303188;28;20204;-63
2024/04/04 06:13:38;;;;;;;4.73;2.10;;;12.70;90.50;;;;;;6300511;28;20224;-63
2024/04/04 06:16:39;;;;;;;5.90;1.90;;;12.80;90.00;;;;;;6300229;28;20275;-64
2024/04/04 06:19:39;;;;;;;9.63;2.17;;;12.80;89.70;;;;;;6300224;28;20186;-62
2024/04/04 06:22:40;;;;;;;5.70;2.30;;;12.90;89.40;;;;;;6300199;28;20193;-63
2024/04/04 06:25:41;;;;;;;6.80;2.03;;;13.10;89.30;;;;;;6299722;28;20226;-63
2024/04/04 06:28:44;;;;;;;5.63;2.20;;;13.20;89.20;;;;;;6299189;28;20483;-63
2024/04/04 06:31:44;;;;;;;6.40;2.87;;;13.30;89.10;;;;;;6298878;28;20221;-63
2024/04/04 06:34:46;;;;;;;7.13;2.00;;;13.40;88.40;;;;;;6303069;28;20423;-64
2024/04/04 06:37:49;;;;;;;9.13;2.20;;;13.50;88.60;;;;;;6284882;28;20224;-64
2024/04/04 06:40:50;;;;;;;3.70;2.00;;;13.50;87.90;;;;;;6301853;28;20518;-63
2024/04/04 06:43:51;;;;;;;4.47;1.87;;;13.50;87.80;;;;;;6303554;28;20442;-64
2024/04/04 06:46:51;;;;;;;4.07;1.60;;;13.40;87.50;;;;;;6303330;28;20594;-63
2024/04/04 06:49:52;;;;;;;8.50;2.10;;;13.40;87.70;;;;;;6303936;28;20199;-63
2024/04/04 06:52:53;;;;;;;8.40;2.03;;;13.50;87.60;;;;;;6302831;28;20235;-64
2024/04/04 06:55:54;;;;;;;4.10;1.77;;;13.50;87.40;;;;;;6303061;28;20283;-63
2024/04/04 06:58:55;;;;;;;6.07;1.90;;;13.50;87.40;;;;;;6304691;28;20896;-63
2024/04/04 07:01:56;;;;;;;9.90;1.87;;;13.60;87.00;;;;;;6304401;28;20288;-64
2024/04/04 07:04:57;;;;;;;8.33;2.63;;;13.60;86.60;;;;;;6303723;28;20285;-64
2024/04/04 07:07:58;;;;;;;6.73;2.50;;;13.60;86.70;;;;;;6302905;28;20360;-63
2024/04/04 07:11:00;;;;;;;4.67;1.97;;;13.50;86.50;;;;;;6303253;28;20450;-63
2024/04/04 07:14:01;;;;;;;6.13;2.00;;;13.50;86.40;;;;;;6302987;28;20380;-63
2024/04/04 07:17:01;;;;;;;9.50;1.87;;;13.40;86.20;;;;;;6302490;28;20523;-63
2024/04/04 07:20:02;;;;;;;5.20;1.70;;;13.40;86.40;;;;;;6302214;28;20432;-62
2024/04/04 07:23:04;;;;;;;4.27;1.40;;;13.40;86.80;;;;;;6285591;28;20197;-63
2024/04/04 07:26:04;;;;;;;8.40;2.00;;;13.30;86.90;;;;;;6302328;28;20280;-63
2024/04/04 07:29:05;;;;;;;5.30;1.80;;;13.20;86.90;;;;;;6301805;28;20433;-63
2024/04/04 07:32:07;;;;;;;4.97;1.60;;;13.10;87.80;;;;;;6301923;28;20209;-63
2024/04/04 07:35:08;;;;;;;3.90;1.70;;;13.10;88.00;;;;;;6302622;28;20571;-63
2024/04/04 07:38:10;;;;;;;7.37;2.30;;;13.00;88.70;;;;;;6301969;28;20498;-64
2024/04/04 07:41:12;;;;;;;7.83;2.20;;;13.00;88.70;;;;;;6302147;28;20240;-64
2024/04/04 07:44:13;;;;;;;4.70;1.80;;;13.00;88.60;;;;;;6308736;28;20907;-64
2024/04/04 07:47:14;;;;;;;7.53;2.20;;;13.00;89.10;;;;;;6301173;28;20454;-64
2024/04/04 07:50:16;;;;;;;8.40;1.53;;;13.00;89.10;;;;;;6301312;28;20437;-65
2024/04/04 07:53:17;;;;;;;9.43;2.27;;;13.00;89.20;;;;;;6300551;28;20552;-63
2024/04/04 07:56:18;;;;;;;5.80;1.83;;;13.00;89.20;;;;;;6300766;28;20464;-64
2024/04/04 07:59:18;;;;;;;6.77;2.10;;;13.00;89.60;;;;;;6301209;28;20205;-64
2024/04/04 08:02:19;;;;;;;6.00;1.43;;;13.00;89.90;;;;;;6300956;28;20196;-64
2024/04/04 08:05:20;;;;;;;7.13;1.57;;;13.10;89.80;;;;;;6302293;28;20220;-64
2024/04/04 08:08:21;;;;;;;7.30;1.93;;;13.20;89.50;;;;;;6301467;28;20306;-63
2024/04/04 08:11:22;;;;;;;12.43;2.10;;;13.20;89.50;;;;;;6300965;28;20875;-63
2024/04/04 08:14:25;;;;;;;3.07;1.67;;;13.20;89.70;;;;;;6301250;28;20204;-63
2024/04/04 08:17:27;;;;;;;4.97;1.70;;;13.20;90.30;;;;;;6284334;28;20530;-64
2024/04/04 08:20:28;;;;;;;8.50;1.87;;;13.30;90.00;;;;;;6300349;28;20424;-64
2024/04/04 08:23:30;;;;;;;4.20;1.57;;;13.30;89.80;;;;;;6301874;28;20205;-63
2024/04/04 08:26:31;;;;;;;12.87;1.97;;;13.30;90.10;;;;;;6300097;28;20729;-63
2024/04/04 08:29:32;;;;;;;5.67;1.60;;;13.20;90.70;;;;;;6300193;28;20472;-63
2024/04/04 08:32:32;;;;;;;5.97;1.90;;;13.20;90.60;;;;;;6284027;28;20294;-63
2024/04/04 08:35:33;;;;;;;10.60;2.23;;;13.20;90.50;;;;;;6300591;28;20200;-63
2024/04/04 08:38:34;;;;;;;7.30;1.93;;;13.10;90.80;;;;;;6300415;28;20185;-64
2024/04/04 08:41:35;;;;;;;9.77;2.07;;;13.20;90.60;;;;;;6284214;28;20203;-64
2024/04/04 08:44:36;;;;;;;10.90;2.03;;;13.20;90.70;;;;;;6300913;28;20185;-64
2024/04/04 08:47:38;;;;;;;4.23;1.63;;;13.20;90.40;;;;;;6300592;28;20522;-64
2024/04/04 08:50:45;;;;;;;2.83;1.30;;;13.20;90.60;;;;;;6300181;28;20582;-63
2024/04/04 08:53:46;;;;;;;6.97;1.63;;;13.20;90.50;;;;;;6305786;28;20563;-64
2024/04/04 08:56:47;;;;;;;6.37;1.80;;;13.30;90.00;;;;;;6292465;28;20435;-64
2024/04/04 08:59:58;;;;;;;7.90;2.13;;;13.30;89.70;;;;;;6305583;28;20290;-62
2024/04/04 09:02:59;;;;;;;4.97;2.03;;;13.20;90.00;;;;;;6307550;28;20452;-62
2024/04/04 09:06:00;;;;;;;7.57;1.80;;;13.30;90.30;;;;;;6309736;28;20469;-63
2024/04/04 09:09:01;;;;;;;6.30;2.20;;;13.20;90.40;;;;;;6307980;28;20467;-63
2024/04/04 09:12:12;;;;;;;9.00;2.03;;;13.30;90.90;;;;;;6306160;28;20212;-63
2024/04/04 09:15:13;;;;;;;2.90;1.80;;;13.30;90.60;;;;;;6305318;28;20621;-64
2024/04/04 09:18:14;;;;;;;7.40;1.60;;;13.20;90.90;;;;;;6304224;28;20523;-63
2024/04/04 09:21:15;;;;;;;4.17;1.83;;;13.30;90.30;;;;;;6311236;28;20710;-63
2024/04/04 09:24:16;;;;;;;5.00;1.87;;;13.30;90.60;;;;;;6302657;28;20189;-64
2024/04/04 09:27:20;;;;;;;3.73;2.33;;;13.30;90.30;;;;;;6300324;28;20284;-64
2024/04/04 09:30:25;;;;;;;5.37;1.70;;;13.40;90.40;;;;;;6300358;28;20522;-63
2024/04/04 09:33:28;;;;;;;4.53;1.40;;;13.40;89.60;;;;;;6299646;28;20586;-63
2024/04/04 09:36:30;;;;;;;4.00;2.03;;;13.40;88.90;;;;;;6301509;28;20458;-63
2024/04/04 09:39:32;;;;;;;4.47;1.50;;;13.50;88.70;;;;;;6300646;28;20519;-63
2024/04/04 09:42:33;;;;;;;7.10;2.00;;;13.60;88.20;;;;;;6299650;28;20833;-62
2024/04/04 09:45:36;;;;;;;3.67;1.87;;;13.60;87.70;;;;;;6299568;28;20583;-62
2024/04/04 09:48:37;;;;;;;6.53;1.53;;;13.60;87.70;;;;;;6299436;28;20515;-64
2024/04/04 09:51:40;;;;;;;5.43;1.40;;;13.50;87.30;;;;;;6299620;28;20552;-63
2024/04/04 09:54:42;;;;;;;3.50;1.30;;;13.50;87.70;;;;;;6300078;28;20493;-62
2024/04/04 09:57:43;;;;;;;3.40;1.30;;;13.50;87.80;;;;;;6299255;28;20519;-63
2024/04/04 10:00:44;;;;;;;4.67;1.47;;;13.50;88.10;;;;;;6299474;28;20573;-62
2024/04/04 10:04:05;;;;;;;3.40;1.03;;;13.60;87.30;;;;;;6299053;28;20916;-63
2024/04/04 10:07:07;;;;;;;2.50;1.10;;;13.60;86.60;;;;;;6299041;28;20705;-63
2024/04/04 10:10:19;;;;;;;3.63;1.83;;;13.60;86.70;;;;;;6299398;28;20643;-62
2024/04/04 10:13:20;;;;;;;1.60;1.00;;;13.60;86.70;;;;;;6299066;28;20562;-63
2024/04/04 10:16:35;;;;;;;8.10;1.50;;;13.70;86.40;;;;;;6302226;28;20765;-63
2024/04/04 10:19:36;;;;;;;2.03;1.10;;;13.70;85.80;;;;;;6304855;28;20273;-63
2024/04/04 10:22:36;;;;;;;2.73;1.20;;;13.70;85.90;;;;;;6303917;28;20443;-64
2024/04/04 10:25:40;;;;;;;3.50;1.37;;;13.80;85.80;;;;;;6303816;28;20275;-62
2024/04/04 10:28:48;;;;;;;2.40;1.23;;;13.70;86.10;;;;;;6286643;28;20193;-64
2024/04/04 10:31:52;;;;;;;2.93;1.00;;;13.70;86.40;;;;;;6302951;28;20459;-63
2024/04/04 10:35:00;;;;;;;3.97;1.20;;;13.60;87.20;;;;;;6302711;28;20958;-62
2024/04/04 10:38:12;;;;;;;3.07;1.30;;;13.70;87.00;;;;;;6303351;28;20832;-63
2024/04/04 10:41:13;;;;;;;2.40;1.10;;;13.60;87.60;;;;;;6302955;28;20745;-63
2024/04/04 10:44:16;;;;;;;3.73;1.40;;;13.60;87.90;;;;;;6306723;28;20503;-63
2024/04/04 10:47:17;;;;;;;5.20;1.20;;;13.50;88.60;;;;;;6304419;28;20288;-63
2024/04/04 10:50:18;;;;;;;4.50;1.53;;;13.50;89.10;;;;;;6285988;28;20895;-63
2024/04/04 10:53:18;;;;;;;3.03;1.40;;;13.40;89.30;;;;;;6303056;28;20641;-62
2024/04/04 10:56:19;;;;;;;7.20;1.60;;;13.30;89.90;;;;;;6303099;28;20181;-64
2024/04/04 10:59:21;;;;;;;3.67;1.43;;;13.30;89.70;;;;;;6304519;28;20285;-64
2024/04/04 11:02:23;;;;;;;10.50;3.00;;;13.30;91.10;;;;;;6302852;28;20928;-63
2024/04/04 11:05:24;;;;;;;3.30;1.57;;;13.10;93.00;;;;;;6302631;28;20814;-64
2024/04/04 11:08:27;;;;;;;4.00;1.60;;;13.00;93.60;;;;;;6302081;28;20549;-64
2024/04/04 11:11:28;;;;;;;2.40;1.90;;;13.00;93.80;;;;;;6302528;28;20545;-64
2024/04/04 11:14:29;;;;;;;5.70;1.97;;;13.00;93.90;;;;;;6302581;28;20522;-64
2024/04/04 11:17:31;;;;;;;1.83;1.23;;;13.00;94.10;;;;;;6303164;28;20512;-64
2024/04/04 11:20:32;;;;;;;7.57;1.47;;;13.00;93.10;;;;;;6302279;28;20335;-62
2024/04/04 11:23:34;;;;;;;2.90;1.30;;;12.90;92.60;;;;;;6302700;28;20436;-64
2024/04/04 11:26:35;;;;;;;2.10;0.90;;;12.80;92.70;;;;;;6301674;28;20460;-64
2024/04/04 11:29:36;;;;;;;2.97;1.00;;;12.70;90.60;;;;;;6292203;28;20885;-64
2024/04/04 11:32:37;;;;;;;0.87;0.70;;;12.50;88.40;;;;;;6306512;28;20237;-65
2024/04/04 11:35:38;;;;;;;0.90;0.67;;;12.30;89.20;;;;;;6306551;28;20892;-63
2024/04/04 11:38:39;;;;;;;1.13;0.77;;;12.00;89.90;;;;;;6304347;28;20279;-64
2024/04/04 11:41:39;;;;;;;2.00;0.80;;;11.90;90.60;;;;;;6304493;28;20508;-64
2024/04/04 11:44:40;;;;;;;2.80;0.80;;;11.80;91.80;;;;;;6305800;28;20197;-64
2024/04/04 11:47:42;;;;;;;2.23;0.80;;;11.80;91.40;;;;;;6288601;28;20189;-64
2024/04/04 11:50:44;;;;;;;0.93;0.63;;;11.80;91.80;;;;;;6303964;28;20256;-65
2024/04/04 11:53:45;;;;;;;3.57;0.90;;;11.70;91.60;;;;;;6302662;28;20559;-62
2024/04/04 11:56:46;;;;;;;1.37;0.87;;;11.80;92.40;;;;;;6303974;28;20866;-63
2024/04/04 11:59:47;;;;;;;1.77;0.80;;;11.80;92.90;;;;;;6305018;28;20231;-64
2024/04/04 12:02:48;;;;;;;0.97;0.73;;;11.80;92.70;;;;;;6310746;28;20432;-64
2024/04/04 12:05:49;;;;;;;3.40;0.90;;;11.80;92.70;;;;;;6314936;28;20193;-64
2024/04/04 12:08:50;;;;;;;1.13;0.70;;;11.80;93.00;;;;;;6314007;28;20229;-65
2024/04/04 12:11:51;;;;;;;1.30;0.80;;;11.90;93.20;;;;;;6304255;28;20487;-63
2024/04/04 12:14:52;;;;;;;2.13;0.90;;;11.90;93.30;;;;;;6304850;28;20212;-63
2024/04/04 12:19:25;;;;;;;2.10;0.73;;;11.90;93.40;;;;;;6305513;28;20186;-65
2024/04/04 12:21:16;;;;;;;1.10;0.70;;;11.90;93.70;;;;;;6298153;28;20213;-64
2024/04/04 12:24:17;;;;;;;1.00;0.60;;;12.00;93.20;;;;;;6313857;28;20460;-63
2024/04/04 12:27:17;;;;;;;3.50;0.70;;;12.00;93.20;;;;;;6297226;28;20443;-63
2024/04/04 12:30:18;;;;;;;1.07;0.67;;;12.00;92.70;;;;;;6311050;28;20189;-64
2024/04/04 12:33:19;;;;;;;1.97;0.70;;;12.00;93.20;;;;;;6295530;28;20335;-64
2024/04/04 12:36:20;;;;;;;0.70;0.70;;;12.10;93.10;;;;;;6307662;28;20232;-64
2024/04/04 12:39:21;;;;;;;1.57;0.63;;;12.10;92.90;;;;;;6303614;28;20193;-64
2024/04/04 12:42:22;;;;;;;2.10;0.80;;;12.10;92.90;;;;;;6301468;28;20247;-63
2024/04/04 12:45:23;;;;;;;1.80;1.00;;;12.10;93.00;;;;;;6284044;28;20428;-63
2024/04/04 12:48:23;;;;;;;1.77;0.70;;;12.00;92.90;;;;;;6300851;28;20204;-63
2024/04/04 12:51:24;;;;;;;1.30;0.90;;;11.90;92.60;;;;;;6299634;28;20632;-65
2024/04/04 12:54:25;;;;;;;1.93;0.63;;;11.90;92.90;;;;;;6299738;28;20304;-64
2024/04/04 12:57:26;;;;;;;1.57;0.60;;;11.90;93.30;;;;;;6299673;28;20587;-64
2024/04/04 13:00:28;;;;;;;0.93;0.67;;;12.00;93.10;;;;;;6299434;28;20190;-65
2024/04/04 13:03:29;;;;;;;0.70;0.60;;;12.00;92.40;;;;;;6300251;28;20515;-64
2024/04/04 13:06:31;;;;;;;1.50;0.80;;;11.80;91.90;;;;;;6299669;28;20440;-64
2024/04/04 13:09:31;;;;;;;2.30;0.90;;;11.80;91.30;;;;;;6299193;28;20315;-62
2024/04/04 13:12:33;;;;;;;0.77;0.50;;;11.80;91.50;;;;;;6299603;28;20456;-63
2024/04/04 13:15:33;;;;;;;1.07;0.70;;;11.70;91.90;;;;;;6300021;28;20330;-63
2024/04/04 13:18:35;;;;;;;1.77;1.00;;;11.70;91.60;;;;;;6298996;28;20835;-64
2024/04/04 13:21:36;;;;;;;1.80;0.60;;;11.60;91.90;;;;;;6299374;28;20420;-64
2024/04/04 13:24:36;;;;;;;0.80;0.60;;;11.60;92.10;;;;;;6299030;28;20222;-64
2024/04/04 13:27:37;;;;;;;0.70;0.50;;;11.50;92.20;;;;;;6299051;28;20196;-64
2024/04/04 13:30:38;;;;;;;1.63;0.80;;;11.50;92.20;;;;;;6299090;28;20185;-64
2024/04/04 13:33:40;;;;;;;1.10;0.60;;;11.50;92.30;;;;;;6298992;28;20295;-63
2024/04/04 13:36:40;;;;;;;0.80;0.70;;;11.50;92.90;;;;;;6299776;28;20640;-64
2024/04/04 13:39:41;;;;;;;0.90;0.80;;;11.50;92.80;;;;;;6299277;28;20475;-64
2024/04/04 13:42:42;;;;;;;1.77;0.73;;;11.60;92.90;;;;;;6301129;28;20240;-63
2024/04/04 13:45:44;;;;;;;1.00;0.70;;;11.50;93.10;;;;;;6299694;28;20304;-64
2024/04/04 13:48:44;;;;;;;0.90;0.80;;;11.60;92.90;;;;;;6299090;28;20193;-63
2024/04/04 13:51:45;;;;;;;2.00;0.77;;;11.60;92.90;;;;;;6302728;28;20439;-62
2024/04/04 13:54:47;;;;;;;0.60;0.50;;;11.60;92.40;;;;;;6303870;28;20277;-62
2024/04/04 13:57:49;;;;;;;1.60;0.67;;;11.60;92.00;;;;;;6304379;28;20280;-63
2024/04/04 14:00:50;;;;;;;0.70;0.60;;;11.70;90.50;;;;;;6303681;28;20527;-65
2024/04/04 14:03:51;;;;;;;1.80;0.70;;;11.80;90.00;;;;;;6303873;28;20451;-65
2024/04/04 14:06:52;;;;;;;0.90;0.73;;;11.90;89.00;;;;;;6303945;28;20192;-63
2024/04/04 14:09:53;;;;;;;0.80;0.60;;;12.00;89.10;;;;;;6308604;28;20280;-66
2024/04/04 14:12:53;;;;;;;2.27;0.80;;;12.10;89.40;;;;;;6287477;28;20214;-65
2024/04/04 14:15:54;;;;;;;0.90;0.70;;;12.30;89.10;;;;;;6304398;28;20632;-65
2024/04/04 14:18:55;;;;;;;1.73;0.87;;;12.50;89.20;;;;;;6303645;28;20247;-65
2024/04/04 14:21:59;;;;;;;1.53;0.70;;;13.00;89.10;;;;;;6305204;28;20359;-64
2024/04/04 14:25:00;;;;;;;1.20;0.73;;;13.50;88.50;;;;;;6310043;28;20518;-64
2024/04/04 14:28:01;;;;;;;1.40;0.80;;;13.90;86.10;;;;;;6307049;28;20453;-63
2024/04/04 14:31:02;;;;;;;1.23;0.70;;;14.10;85.10;;;;;;6304637;28;20288;-63
2024/04/04 14:34:05;;;;;;;2.30;0.90;;;14.20;84.80;;;;;;6303107;28;20946;-63
2024/04/04 14:37:06;;;;;;;1.00;0.70;;;14.40;83.70;;;;;;6302993;28;20527;-63
2024/04/04 14:40:07;;;;;;;1.83;0.70;;;14.60;82.70;;;;;;6302863;28;20484;-64
2024/04/04 14:43:09;;;;;;;1.00;0.80;;;14.60;80.20;;;;;;6302834;28;20203;-65
2024/04/04 14:46:09;;;;;;;1.03;0.70;;;14.80;81.50;;;;;;6303170;28;20538;-64
2024/04/04 14:49:11;;;;;;;0.80;0.70;;;15.00;81.10;;;;;;6303099;28;20767;-64
2024/04/04 14:52:12;;;;;;;0.80;0.70;;;15.10;79.50;;;;;;6302845;28;20781;-64
2024/04/04 14:55:12;;;;;;;1.10;0.70;;;15.00;79.50;;;;;;6302693;28;20437;-64
2024/04/04 14:58:13;;;;;;;1.97;1.00;;;14.90;79.50;;;;;;6303112;28;20298;-65
2024/04/04 15:01:16;;;;;;;1.00;0.90;;;14.80;79.60;;;;;;6302459;28;20211;-65
2024/04/04 15:04:16;;;;;;;2.90;0.80;;;14.60;80.60;;;;;;6303655;28;20252;-63
2024/04/04 15:07:17;;;;;;;1.50;0.70;;;14.60;81.30;;;;;;6302816;28;20468;-65
2024/04/04 15:10:18;;;;;;;1.73;0.87;;;14.60;81.00;;;;;;6305063;28;20193;-65
2024/04/04 15:13:19;;;;;;;0.90;0.83;;;14.60;81.70;;;;;;6306227;28;20236;-65
2024/04/04 15:16:20;;;;;;;1.40;1.13;;;14.80;81.80;;;;;;6305949;28;20189;-65
2024/04/04 15:19:20;;;;;;;0.90;0.70;;;14.90;81.00;;;;;;6305569;28;20186;-65
2024/04/04 15:22:21;;;;;;;1.97;0.77;;;15.00;80.60;;;;;;6307053;28;20193;-65
2024/04/04 15:25:22;;;;;;;1.47;0.70;;;15.20;79.00;;;;;;6306595;28;20185;-65
2024/04/04 15:28:23;;;;;;;2.13;0.90;;;15.30;78.60;;;;;;6306329;28;20293;-65
2024/04/04 15:31:24;;;;;;;2.10;0.83;;;15.40;78.80;;;;;;6308992;28;20452;-65
2024/04/04 15:34:25;;;;;;;1.67;0.90;;;15.80;77.90;;;;;;6307578;28;20486;-66
2024/04/04 15:37:25;;;;;;;0.93;0.80;;;15.90;77.10;;;;;;6305839;28;20212;-65
2024/04/04 15:40:26;;;;;;;1.43;1.10;;;16.00;76.70;;;;;;6304391;28;20195;-66
2024/04/04 15:43:27;;;;;;;1.30;0.70;;;16.10;76.70;;;;;;6285376;28;20208;-66
2024/04/04 15:46:28;;;;;;;1.07;0.90;;;16.20;76.60;;;;;;6302604;28;20229;-64